Time;durP1;ratioP1;P1;durP2;ratioP2;P2;SDS_P1;SDS_P2;PMS_P1;PMS_P2;Temp;Humidity;BMP_temperature;BMP_pressure;BME280_temperature;BME280_humidity;BME280_pressure;Samples;Min_cycle;Max_cycle;Signal;HPM_P1;HPM_P2
2023/06/26 00:01:59;;;;;;;0.10;0.10;;;16.20;66.40;;;;;;5054344;28;20215;-52
2023/06/26 00:04:32;;;;;;;0.10;0.10;;;16.20;66.40;;;;;;5053642;28;20208;-51
2023/06/26 00:07:03;;;;;;;0.10;0.10;;;16.20;66.40;;;;;;5053932;28;20537;-55
2023/06/26 00:09:34;;;;;;;0.10;0.10;;;16.20;66.50;;;;;;5053816;28;20199;-50
2023/06/26 00:12:05;;;;;;;0.10;0.10;;;16.20;66.50;;;;;;5054142;28;20250;-51
2023/06/26 00:14:35;;;;;;;0.10;0.10;;;16.20;66.50;;;;;;5054018;28;20198;-52
2023/06/26 00:17:06;;;;;;;0.10;0.10;;;16.20;66.50;;;;;;5053965;28;20231;-55
2023/06/26 00:19:39;;;;;;;0.10;0.10;;;16.20;66.40;;;;;;5054100;28;20277;-54
2023/06/26 00:22:09;;;;;;;0.20;0.20;;;16.20;66.40;;;;;;5054056;28;20280;-51
2023/06/26 00:24:40;;;;;;;0.10;0.10;;;16.20;66.30;;;;;;5062422;28;20196;-50
2023/06/26 00:27:10;;;;;;;0.00;0.00;;;16.20;66.40;;;;;;5054142;28;20281;-49
2023/06/26 00:29:41;;;;;;;0.10;0.10;;;16.20;66.40;;;;;;5050918;28;20606;-51
2023/06/26 00:32:12;;;;;;;0.03;0.03;;;16.20;66.40;;;;;;5053663;28;20223;-49
2023/06/26 00:34:46;;;;;;;0.10;0.10;;;16.30;66.40;;;;;;5053673;28;20195;-50
2023/06/26 00:37:17;;;;;;;0.10;0.10;;;16.20;66.30;;;;;;5053676;28;20195;-53
2023/06/26 00:39:47;;;;;;;0.10;0.10;;;16.20;66.40;;;;;;5053463;28;20631;-54
2023/06/26 00:42:18;;;;;;;0.03;0.03;;;16.30;66.40;;;;;;5053555;28;20223;-51
2023/06/26 00:44:49;;;;;;;0.03;0.03;;;16.20;66.30;;;;;;5053787;28;20325;-49
2023/06/26 00:47:20;;;;;;;0.00;0.00;;;16.20;66.40;;;;;;5053540;28;20233;-52
2023/06/26 00:50:00;;;;;;;0.10;0.10;;;16.30;66.40;;;;;;5053502;28;20253;-50
2023/06/26 00:52:30;;;;;;;0.00;0.00;;;16.30;66.40;;;;;;5053393;28;20195;-52
2023/06/26 00:55:01;;;;;;;0.10;0.10;;;16.30;66.40;;;;;;5043338;28;20196;-52
2023/06/26 00:57:32;;;;;;;0.10;0.10;;;16.30;66.40;;;;;;5053419;28;20196;-52
2023/06/26 01:00:05;;;;;;;0.10;0.10;;;16.30;66.40;;;;;;5053256;28;20604;-49
2023/06/26 01:02:38;;;;;;;0.10;0.10;;;16.30;66.40;;;;;;5053134;28;20275;-52
2023/06/26 01:05:12;;;;;;;0.17;0.17;;;16.30;66.40;;;;;;5052882;28;20199;-49
2023/06/26 01:07:43;;;;;;;0.10;0.10;;;16.30;66.50;;;;;;5053273;28;20202;-51
2023/06/26 01:10:14;;;;;;;0.10;0.10;;;16.30;66.50;;;;;;5053135;28;20191;-53
2023/06/26 01:12:45;;;;;;;0.10;0.10;;;16.30;66.50;;;;;;5053236;28;20603;-54
2023/06/26 01:15:15;;;;;;;0.10;0.10;;;16.30;66.40;;;;;;5053104;28;20651;-51
2023/06/26 01:17:47;;;;;;;0.10;0.10;;;16.30;66.40;;;;;;5053260;28;20202;-54
2023/06/26 01:20:20;;;;;;;0.10;0.10;;;16.30;66.40;;;;;;5053147;28;20322;-53
2023/06/26 01:23:01;;;;;;;0.10;0.10;;;16.30;66.40;;;;;;5054929;28;20571;-50
2023/06/26 01:25:40;;;;;;;0.10;0.10;;;16.30;66.40;;;;;;5059314;28;20195;-49
2023/06/26 01:28:14;;;;;;;0.10;0.10;;;16.30;66.50;;;;;;5052648;28;20255;-50
2023/06/26 01:30:46;;;;;;;0.10;0.10;;;16.30;66.40;;;;;;5052260;28;20705;-55
2023/06/26 01:33:18;;;;;;;0.10;0.10;;;16.30;66.40;;;;;;5066360;28;20199;-53
2023/06/26 01:35:49;;;;;;;0.10;0.10;;;16.30;66.50;;;;;;5067229;28;20592;-53
2023/06/26 01:38:23;;;;;;;0.10;0.10;;;16.30;66.50;;;;;;5063534;28;20647;-52
2023/06/26 01:40:54;;;;;;;0.00;0.00;;;16.30;66.50;;;;;;5058055;28;20578;-53
2023/06/26 01:43:34;;;;;;;0.10;0.10;;;16.30;66.50;;;;;;5071191;28;20229;-52
2023/06/26 01:46:09;;;;;;;0.08;0.08;;;16.30;66.50;;;;;;5068443;28;20575;-52
2023/06/26 01:48:48;;;;;;;0.10;0.10;;;16.30;66.50;;;;;;5070693;28;20642;-54
2023/06/26 01:51:24;;;;;;;0.10;0.10;;;16.30;66.50;;;;;;5068831;28;20210;-52
2023/06/26 01:53:59;;;;;;;0.10;0.10;;;16.40;66.50;;;;;;5060491;28;20198;-54
2023/06/26 01:56:32;;;;;;;0.00;0.00;;;16.40;66.50;;;;;;5068808;28;20202;-53
2023/06/26 01:59:06;;;;;;;0.10;0.10;;;16.40;66.50;;;;;;5064022;28;20632;-55
2023/06/26 02:01:37;;;;;;;0.05;0.05;;;16.40;66.50;;;;;;5068515;28;20233;-49
2023/06/26 02:04:07;;;;;;;0.10;0.10;;;16.40;66.50;;;;;;5070814;28;20242;-51
2023/06/26 02:06:38;;;;;;;0.10;0.10;;;16.40;66.50;;;;;;5069224;28;20203;-51
2023/06/26 02:09:08;;;;;;;0.03;0.03;;;16.40;66.40;;;;;;5070298;28;20199;-52
2023/06/26 02:11:39;;;;;;;0.00;0.00;;;16.30;66.40;;;;;;5068531;28;20222;-53
2023/06/26 02:14:12;;;;;;;0.00;0.00;;;16.40;66.40;;;;;;5071087;28;20256;-49
2023/06/26 02:16:42;;;;;;;0.10;0.10;;;16.30;66.30;;;;;;5068550;28;20198;-53
2023/06/26 02:19:21;;;;;;;0.10;0.10;;;16.40;66.30;;;;;;5070889;28;20199;-49
2023/06/26 02:21:52;;;;;;;0.10;0.10;;;16.40;66.40;;;;;;5054273;28;20284;-50
2023/06/26 02:24:22;;;;;;;0.10;0.10;;;16.40;66.20;;;;;;5068489;28;20199;-49
2023/06/26 02:26:53;;;;;;;0.00;0.00;;;16.40;66.30;;;;;;5060221;28;20202;-53
2023/06/26 02:29:25;;;;;;;0.10;0.10;;;16.40;66.40;;;;;;5070808;28;20205;-53
2023/06/26 02:31:56;;;;;;;0.10;0.10;;;16.40;66.40;;;;;;5055775;28;20226;-48
2023/06/26 02:34:27;;;;;;;0.10;0.10;;;16.40;66.40;;;;;;5058794;28;20199;-51
2023/06/26 02:36:58;;;;;;;0.00;0.00;;;16.40;66.40;;;;;;5063506;28;20716;-51
2023/06/26 02:39:29;;;;;;;0.10;0.10;;;16.40;66.50;;;;;;5070179;28;20567;-52
2023/06/26 02:41:59;;;;;;;0.00;0.00;;;16.40;66.40;;;;;;5056458;28;20291;-54
2023/06/26 02:44:32;;;;;;;0.10;0.10;;;16.40;66.40;;;;;;5069888;28;20672;-51
2023/06/26 02:47:02;;;;;;;0.10;0.10;;;16.40;66.40;;;;;;5056437;28;20256;-51
2023/06/26 02:49:33;;;;;;;0.00;0.00;;;16.40;66.40;;;;;;5069923;28;20408;-51
2023/06/26 02:52:03;;;;;;;0.10;0.10;;;16.50;66.40;;;;;;5057340;28;20218;-51
2023/06/26 02:54:34;;;;;;;0.08;0.08;;;16.40;66.30;;;;;;5069618;28;20708;-54
2023/06/26 02:57:05;;;;;;;0.10;0.10;;;16.40;66.30;;;;;;5054507;28;20281;-52
2023/06/26 02:59:39;;;;;;;0.10;0.10;;;16.40;66.30;;;;;;5066788;28;20206;-49
2023/06/26 03:02:09;;;;;;;0.10;0.10;;;16.50;66.30;;;;;;5057769;28;20573;-53
2023/06/26 03:04:40;;;;;;;0.00;0.00;;;16.50;66.30;;;;;;5069077;28;20202;-54
2023/06/26 03:07:11;;;;;;;0.05;0.05;;;16.50;66.20;;;;;;5064180;28;20567;-53
2023/06/26 03:09:41;;;;;;;0.00;0.00;;;16.50;66.30;;;;;;5068985;28;20206;-50
2023/06/26 03:12:13;;;;;;;0.10;0.10;;;16.50;66.20;;;;;;5058621;28;20229;-50
2023/06/26 03:14:45;;;;;;;0.10;0.10;;;16.50;66.30;;;;;;5068032;28;20202;-52
2023/06/26 03:17:16;;;;;;;0.08;0.08;;;16.50;66.20;;;;;;5059994;28;20206;-55
2023/06/26 03:19:46;;;;;;;0.03;0.03;;;16.50;66.30;;;;;;5069478;28;20214;-53
2023/06/26 03:22:17;;;;;;;0.00;0.00;;;16.50;66.30;;;;;;5057980;28;20230;-52
2023/06/26 03:24:48;;;;;;;0.10;0.10;;;16.50;66.30;;;;;;5068550;28;20257;-50
2023/06/26 03:27:19;;;;;;;0.00;0.00;;;16.40;66.20;;;;;;5061055;28;20344;-52
2023/06/26 03:29:51;;;;;;;0.10;0.10;;;16.50;66.20;;;;;;5069217;28;20194;-51
2023/06/26 03:32:22;;;;;;;0.10;0.10;;;16.50;66.20;;;;;;5061376;28;20282;-52
2023/06/26 03:34:52;;;;;;;0.00;0.00;;;16.50;66.20;;;;;;5068663;28;20199;-49
2023/06/26 03:37:23;;;;;;;0.10;0.10;;;16.50;66.20;;;;;;5058275;28;20195;-52
2023/06/26 03:39:54;;;;;;;0.10;0.10;;;16.50;66.20;;;;;;5054362;28;20400;-55
2023/06/26 03:42:24;;;;;;;0.10;0.10;;;16.50;66.10;;;;;;5062382;28;20299;-52
2023/06/26 03:44:57;;;;;;;0.10;0.10;;;16.50;66.10;;;;;;5069912;28;20572;-52
2023/06/26 03:47:27;;;;;;;0.10;0.10;;;16.50;66.20;;;;;;5066227;28;20260;-52
2023/06/26 03:49:58;;;;;;;0.10;0.10;;;16.50;66.20;;;;;;5069444;28;20213;-51
2023/06/26 03:52:30;;;;;;;0.10;0.10;;;16.50;66.20;;;;;;5063512;28;20229;-54
2023/06/26 03:55:01;;;;;;;0.15;0.15;;;16.50;66.20;;;;;;5056038;28;20203;-50
2023/06/26 03:57:32;;;;;;;0.10;0.10;;;16.50;66.20;;;;;;5066754;28;20206;-49
2023/06/26 04:00:08;;;;;;;0.00;0.00;;;16.50;66.20;;;;;;5070162;28;20537;-52
2023/06/26 04:02:39;;;;;;;0.10;0.10;;;16.50;66.90;;;;;;5069424;28;20660;-52
2023/06/26 04:05:09;;;;;;;0.00;0.00;;;16.50;66.20;;;;;;5071758;28;20271;-51
2023/06/26 04:07:41;;;;;;;0.08;0.08;;;16.50;66.10;;;;;;5071758;28;20195;-49
2023/06/26 04:10:12;;;;;;;0.00;0.00;;;16.50;66.10;;;;;;5072000;28;20670;-50
2023/06/26 04:12:43;;;;;;;0.10;0.10;;;16.50;66.10;;;;;;5071895;28;21085;-53
2023/06/26 04:15:15;;;;;;;0.10;0.10;;;16.50;66.10;;;;;;5070542;28;20195;-54
2023/06/26 04:17:46;;;;;;;0.10;0.10;;;16.50;66.10;;;;;;5071219;28;20199;-49
2023/06/26 04:20:17;;;;;;;0.10;0.10;;;16.50;66.10;;;;;;5071722;28;20214;-50
2023/06/26 04:22:47;;;;;;;0.10;0.10;;;16.50;66.10;;;;;;5071710;28;20229;-49
2023/06/26 04:25:18;;;;;;;0.03;0.03;;;16.50;66.00;;;;;;5071251;28;20213;-52
2023/06/26 04:27:49;;;;;;;0.00;0.00;;;16.50;66.00;;;;;;5071953;28;20700;-51
2023/06/26 04:30:22;;;;;;;0.10;0.10;;;16.50;66.00;;;;;;5071469;28;20655;-51
2023/06/26 04:32:53;;;;;;;0.10;0.10;;;16.50;66.00;;;;;;5052333;28;20192;-52
2023/06/26 04:35:24;;;;;;;0.10;0.10;;;16.50;66.00;;;;;;5067540;28;20583;-52
2023/06/26 04:37:55;;;;;;;0.00;0.00;;;16.50;66.00;;;;;;5072709;28;20221;-54
2023/06/26 04:40:25;;;;;;;0.10;0.10;;;16.50;66.00;;;;;;5069454;28;20199;-50
2023/06/26 04:42:56;;;;;;;0.10;0.10;;;16.50;66.10;;;;;;5058493;28;20698;-54
2023/06/26 04:45:28;;;;;;;0.10;0.10;;;16.50;66.10;;;;;;5055073;28;20207;-55
2023/06/26 04:48:00;;;;;;;0.00;0.00;;;16.50;66.00;;;;;;5062220;28;20195;-54
2023/06/26 04:50:31;;;;;;;0.10;0.10;;;16.60;66.00;;;;;;5063486;28;20218;-52
2023/06/26 04:53:02;;;;;;;0.05;0.05;;;16.60;66.00;;;;;;5069153;28;20295;-54
2023/06/26 04:55:33;;;;;;;0.05;0.05;;;16.60;66.00;;;;;;5067640;28;20282;-52
2023/06/26 04:58:03;;;;;;;0.10;0.10;;;16.60;66.00;;;;;;5071922;28;20198;-50
2023/06/26 05:00:37;;;;;;;0.00;0.00;;;16.60;65.90;;;;;;5067651;28;20210;-50
2023/06/26 05:03:07;;;;;;;0.10;0.10;;;16.50;65.90;;;;;;5067285;28;20276;-52
2023/06/26 05:05:38;;;;;;;0.10;0.10;;;16.60;65.90;;;;;;5068132;28;20198;-55
2023/06/26 05:08:18;;;;;;;0.10;0.10;;;16.60;65.90;;;;;;5071798;28;20203;-53
2023/06/26 05:10:49;;;;;;;0.10;0.10;;;16.60;65.90;;;;;;5067656;28;20225;-53
2023/06/26 05:13:20;;;;;;;0.10;0.10;;;16.60;65.90;;;;;;5070924;28;20203;-52
2023/06/26 05:15:53;;;;;;;0.10;0.10;;;16.50;65.90;;;;;;5068868;28;20244;-52
2023/06/26 05:18:25;;;;;;;0.00;0.00;;;16.60;66.10;;;;;;5071559;28;20891;-51
2023/06/26 05:20:56;;;;;;;0.10;0.10;;;16.60;66.10;;;;;;5068245;28;20225;-54
2023/06/26 05:23:28;;;;;;;0.10;0.10;;;16.60;66.10;;;;;;5056220;28;20205;-53
2023/06/26 05:25:59;;;;;;;0.00;0.00;;;16.60;66.10;;;;;;5068524;28;20207;-53
2023/06/26 05:28:30;;;;;;;0.10;0.10;;;16.60;65.90;;;;;;5054210;28;20203;-49
2023/06/26 05:31:04;;;;;;;0.00;0.00;;;16.60;65.30;;;;;;5067871;28;20249;-53
2023/06/26 05:33:38;;;;;;;0.08;0.08;;;16.50;64.70;;;;;;5071607;28;20234;-50
2023/06/26 05:36:11;;;;;;;0.10;0.10;;;16.50;64.30;;;;;;5067085;28;20206;-56
2023/06/26 05:38:42;;;;;;;0.10;0.10;;;16.50;64.10;;;;;;5071320;28;20241;-53
2023/06/26 05:41:14;;;;;;;0.20;0.20;;;16.40;64.00;;;;;;5069020;28;20218;-53
2023/06/26 05:43:44;;;;;;;0.10;0.10;;;16.40;64.00;;;;;;5067238;28;20551;-52
2023/06/26 05:46:17;;;;;;;0.10;0.10;;;16.40;64.20;;;;;;5054180;28;20226;-51
2023/06/26 05:48:48;;;;;;;0.10;0.10;;;16.40;64.30;;;;;;5070813;28;20198;-51
2023/06/26 05:51:19;;;;;;;0.10;0.10;;;16.40;64.30;;;;;;5069648;28;20227;-53
2023/06/26 05:53:50;;;;;;;0.20;0.20;;;16.40;64.50;;;;;;5070896;28;20199;-53
2023/06/26 05:56:21;;;;;;;0.10;0.10;;;16.40;64.50;;;;;;5065678;28;20477;-53
2023/06/26 05:58:53;;;;;;;0.08;0.08;;;16.40;64.60;;;;;;5071303;28;20199;-55
2023/06/26 06:01:26;;;;;;;0.10;0.10;;;16.40;64.60;;;;;;5062575;28;20284;-52
2023/06/26 06:03:56;;;;;;;0.00;0.00;;;16.40;64.60;;;;;;5070576;28;20205;-51
2023/06/26 06:06:27;;;;;;;0.00;0.00;;;16.40;64.60;;;;;;5055469;28;20215;-50
2023/06/26 06:08:58;;;;;;;0.10;0.10;;;16.40;64.70;;;;;;5070787;28;20203;-55
2023/06/26 06:11:29;;;;;;;0.00;0.00;;;16.40;64.70;;;;;;5055344;28;20716;-49
2023/06/26 06:13:59;;;;;;;0.00;0.00;;;16.40;64.60;;;;;;5069409;28;20209;-51
2023/06/26 06:16:32;;;;;;;0.03;0.03;;;16.40;64.60;;;;;;5070182;28;20199;-55
2023/06/26 06:19:03;;;;;;;0.10;0.10;;;16.40;64.60;;;;;;5069219;28;20202;-49
2023/06/26 06:21:34;;;;;;;0.10;0.10;;;16.40;64.60;;;;;;5063897;28;20223;-57
2023/06/26 06:24:04;;;;;;;0.10;0.10;;;16.50;64.70;;;;;;5068721;28;20195;-54
2023/06/26 06:26:35;;;;;;;0.10;0.10;;;16.40;64.60;;;;;;5062785;28;20202;-54
2023/06/26 06:29:06;;;;;;;0.10;0.10;;;16.40;64.60;;;;;;5060914;28;20528;-51
2023/06/26 06:31:38;;;;;;;0.10;0.10;;;16.40;64.60;;;;;;5063523;28;21003;-50
2023/06/26 06:34:09;;;;;;;0.10;0.10;;;16.50;65.50;;;;;;5068910;28;20202;-54
2023/06/26 06:36:40;;;;;;;0.03;0.03;;;16.40;64.70;;;;;;5064368;28;20204;-52
2023/06/26 06:39:10;;;;;;;0.10;0.10;;;16.50;64.80;;;;;;5068685;28;20206;-55
2023/06/26 06:41:41;;;;;;;0.00;0.00;;;16.50;64.80;;;;;;5063833;28;20317;-55
2023/06/26 06:44:12;;;;;;;0.10;0.10;;;16.40;64.70;;;;;;5067258;28;20207;-53
2023/06/26 06:46:45;;;;;;;0.05;0.05;;;16.50;64.80;;;;;;5062062;28;20206;-56
2023/06/26 06:49:15;;;;;;;0.10;0.10;;;16.50;65.60;;;;;;5068785;28;20222;-57
2023/06/26 06:51:46;;;;;;;0.00;0.00;;;16.50;64.90;;;;;;5064133;28;20314;-55
2023/06/26 06:54:18;;;;;;;0.10;0.10;;;16.40;64.70;;;;;;5069319;28;20242;-52
2023/06/26 06:56:49;;;;;;;0.10;0.10;;;16.50;64.80;;;;;;5064555;28;20290;-55
2023/06/26 06:59:20;;;;;;;0.10;0.10;;;16.50;64.80;;;;;;5068825;28;20202;-51
2023/06/26 07:01:52;;;;;;;0.10;0.10;;;16.50;64.80;;;;;;5064696;28;20232;-53
2023/06/26 07:04:23;;;;;;;0.10;0.10;;;16.40;64.60;;;;;;5068379;28;20206;-53
2023/06/26 07:06:54;;;;;;;0.00;0.00;;;16.50;64.80;;;;;;5065312;28;20673;-51
2023/06/26 07:09:26;;;;;;;0.10;0.10;;;16.50;64.80;;;;;;5052724;28;20203;-50
2023/06/26 07:11:56;;;;;;;0.08;0.08;;;16.50;64.80;;;;;;5066067;28;20226;-55
2023/06/26 07:14:27;;;;;;;0.10;0.10;;;16.40;64.70;;;;;;5052918;28;20217;-56
2023/06/26 07:17:00;;;;;;;0.10;0.10;;;16.50;64.80;;;;;;5065742;28;20668;-51
2023/06/26 07:19:30;;;;;;;0.10;0.10;;;16.50;64.90;;;;;;5061535;28;20202;-56
2023/06/26 07:22:01;;;;;;;0.10;0.10;;;16.50;64.80;;;;;;5065366;28;20226;-55
2023/06/26 07:24:32;;;;;;;0.10;0.10;;;16.50;64.90;;;;;;5068319;28;20203;-57
2023/06/26 07:27:03;;;;;;;0.10;0.10;;;16.40;64.70;;;;;;5066326;28;20442;-52
2023/06/26 07:29:34;;;;;;;0.10;0.10;;;16.40;64.90;;;;;;5069202;28;20199;-55
2023/06/26 07:32:07;;;;;;;0.10;0.10;;;16.50;65.00;;;;;;5067016;28;20226;-57
2023/06/26 07:34:37;;;;;;;0.03;0.03;;;16.50;65.00;;;;;;5069164;28;20221;-56
2023/06/26 07:37:08;;;;;;;0.10;0.10;;;16.50;65.00;;;;;;5070286;28;20195;-54
2023/06/26 07:39:39;;;;;;;0.10;0.10;;;16.50;65.00;;;;;;5051383;28;20198;-55
2023/06/26 07:42:10;;;;;;;0.10;0.10;;;16.50;65.00;;;;;;5070405;28;20239;-57
2023/06/26 07:44:41;;;;;;;0.10;0.10;;;16.50;65.00;;;;;;5072754;28;20194;-55
2023/06/26 07:47:14;;;;;;;0.10;0.10;;;16.40;64.90;;;;;;5071491;28;20213;-54
2023/06/26 07:49:44;;;;;;;0.10;0.10;;;16.50;64.90;;;;;;5069930;28;20199;-53
2023/06/26 07:52:16;;;;;;;0.00;0.00;;;16.50;65.00;;;;;;5071963;28;20317;-60
2023/06/26 07:54:46;;;;;;;0.10;0.10;;;16.50;65.00;;;;;;5067746;28;20188;-56
2023/06/26 07:57:17;;;;;;;0.10;0.10;;;16.50;65.00;;;;;;5071213;28;20230;-55
2023/06/26 07:59:49;;;;;;;0.10;0.10;;;16.50;64.90;;;;;;5072597;28;20217;-54
2023/06/26 08:02:22;;;;;;;0.10;0.10;;;16.50;64.90;;;;;;5072202;28;20690;-54
2023/06/26 08:04:53;;;;;;;0.00;0.00;;;16.50;65.00;;;;;;5071499;28;20202;-50
2023/06/26 08:07:24;;;;;;;0.00;0.00;;;16.50;64.90;;;;;;5065124;28;20190;-52
2023/06/26 08:09:54;;;;;;;0.10;0.10;;;16.50;64.90;;;;;;5071454;28;20190;-53
2023/06/26 08:12:25;;;;;;;0.10;0.10;;;16.50;64.90;;;;;;5072080;28;20310;-52
2023/06/26 08:14:56;;;;;;;0.10;0.10;;;16.50;64.90;;;;;;5071112;28;20676;-56
2023/06/26 08:17:28;;;;;;;0.10;0.10;;;16.50;64.90;;;;;;5072591;28;20305;-53
2023/06/26 08:19:59;;;;;;;0.10;0.10;;;16.50;64.90;;;;;;5060786;28;20205;-54
2023/06/26 08:22:30;;;;;;;0.10;0.10;;;16.50;64.90;;;;;;5053975;28;20314;-53
2023/06/26 08:25:01;;;;;;;0.10;0.10;;;16.50;64.90;;;;;;5074461;28;20285;-53
2023/06/26 08:27:31;;;;;;;0.10;0.10;;;16.50;64.90;;;;;;5073669;28;20204;-52
2023/06/26 08:30:04;;;;;;;0.10;0.10;;;16.50;64.90;;;;;;5073854;28;20199;-54
2023/06/26 08:32:38;;;;;;;0.10;0.10;;;16.50;64.90;;;;;;5073869;28;20322;-55
2023/06/26 08:35:10;;;;;;;0.00;0.00;;;16.50;64.90;;;;;;5073941;28;20198;-56
2023/06/26 08:37:41;;;;;;;0.10;0.10;;;16.50;64.90;;;;;;5061166;28;20199;-51
2023/06/26 08:40:12;;;;;;;0.10;0.10;;;16.50;65.60;;;;;;5053894;28;20569;-55
2023/06/26 08:42:43;;;;;;;0.05;0.05;;;16.50;64.90;;;;;;5053071;28;20234;-52
2023/06/26 08:45:14;;;;;;;0.10;0.10;;;16.50;64.90;;;;;;5053469;28;20286;-56
2023/06/26 08:47:48;;;;;;;0.10;0.10;;;16.40;64.80;;;;;;5052930;28;20207;-56
2023/06/26 08:50:22;;;;;;;0.10;0.10;;;16.50;64.90;;;;;;5032972;28;20283;-52
2023/06/26 08:52:59;;;;;;;0.10;0.10;;;16.50;64.90;;;;;;5038622;28;20205;-54
2023/06/26 08:55:31;;;;;;;0.10;0.10;;;16.40;64.80;;;;;;5072697;28;20206;-53
2023/06/26 08:58:02;;;;;;;0.00;0.00;;;16.40;64.80;;;;;;5072630;28;20664;-54
2023/06/26 09:00:33;;;;;;;0.03;0.03;;;16.40;64.80;;;;;;5072735;28;20218;-54
2023/06/26 09:03:08;;;;;;;0.00;0.00;;;16.40;64.80;;;;;;5072511;28;20309;-57
2023/06/26 09:05:38;;;;;;;0.00;0.00;;;16.40;64.80;;;;;;5072180;28;20198;-48
2023/06/26 09:08:10;;;;;;;0.00;0.00;;;16.40;64.80;;;;;;5071982;28;20201;-53
2023/06/26 09:10:42;;;;;;;0.10;0.10;;;16.40;64.80;;;;;;5071284;28;20211;-56
2023/06/26 09:13:13;;;;;;;0.08;0.08;;;16.50;64.90;;;;;;5072233;28;20199;-54
2023/06/26 09:15:47;;;;;;;0.10;0.10;;;16.50;64.90;;;;;;5072322;28;20689;-55
2023/06/26 09:18:21;;;;;;;0.00;0.00;;;16.50;64.90;;;;;;5072313;28;20195;-56
2023/06/26 09:20:52;;;;;;;0.00;0.00;;;16.50;64.90;;;;;;5072330;28;20219;-58
2023/06/26 09:23:23;;;;;;;0.00;0.00;;;16.40;64.80;;;;;;5072164;28;20226;-53
2023/06/26 09:25:56;;;;;;;0.10;0.10;;;16.40;64.80;;;;;;5071416;28;20194;-55
2023/06/26 09:28:27;;;;;;;0.08;0.08;;;16.40;64.80;;;;;;5072021;28;20199;-55
2023/06/26 09:31:03;;;;;;;0.10;0.10;;;16.40;64.80;;;;;;5071839;28;20215;-56
2023/06/26 09:33:41;;;;;;;0.00;0.00;;;16.40;64.80;;;;;;5072035;28;20190;-54
2023/06/26 09:36:25;;;;;;;0.10;0.10;;;16.40;64.80;;;;;;5072048;28;20237;-55
2023/06/26 09:38:56;;;;;;;0.00;0.00;;;16.40;64.80;;;;;;5071621;28;20191;-52
2023/06/26 09:41:26;;;;;;;0.10;0.10;;;16.40;64.80;;;;;;5070904;28;20219;-53
2023/06/26 09:43:59;;;;;;;0.10;0.10;;;16.40;64.80;;;;;;5071576;28;20222;-58
2023/06/26 09:46:31;;;;;;;0.10;0.10;;;16.40;64.80;;;;;;4900125;28;4583849;-52
2023/06/26 09:49:10;;;;;;;0.00;0.00;;;16.40;64.80;;;;;;5052704;28;20206;-55
2023/06/26 09:51:42;;;;;;;0.10;0.10;;;16.40;64.80;;;;;;5053265;28;20219;-57
2023/06/26 09:54:13;;;;;;;0.10;0.10;;;16.40;64.80;;;;;;5066990;28;20257;-58
2023/06/26 09:56:44;;;;;;;0.10;0.10;;;16.40;64.80;;;;;;5071754;28;20277;-54
2023/06/26 09:59:15;;;;;;;0.03;0.03;;;16.40;64.80;;;;;;5069672;28;20195;-54
2023/06/26 10:01:49;;;;;;;0.10;0.10;;;16.40;64.80;;;;;;5056311;28;20221;-58
2023/06/26 10:04:21;;;;;;;0.00;0.00;;;16.40;64.80;;;;;;5052527;28;20314;-51
2023/06/26 10:06:55;;;;;;;0.10;0.10;;;16.40;65.30;;;;;;5052607;28;20285;-54
2023/06/26 10:09:26;;;;;;;0.00;0.00;;;16.40;65.60;;;;;;5052562;28;20208;-57
2023/06/26 10:11:59;;;;;;;0.00;0.00;;;16.40;65.50;;;;;;5052366;28;20219;-53
2023/06/26 10:14:34;;;;;;;0.10;0.10;;;16.50;65.50;;;;;;5052386;28;20225;-52
2023/06/26 10:17:06;;;;;;;0.10;0.10;;;16.50;65.40;;;;;;5052405;28;20206;-54
2023/06/26 10:19:42;;;;;;;0.08;0.08;;;16.50;65.30;;;;;;5051916;28;20198;-54
2023/06/26 10:22:14;;;;;;;0.05;0.05;;;16.50;65.30;;;;;;5052014;28;20211;-52
2023/06/26 10:24:46;;;;;;;0.08;0.08;;;16.50;65.20;;;;;;5070382;28;20226;-56
2023/06/26 10:27:19;;;;;;;0.10;0.10;;;16.50;65.10;;;;;;5071780;28;20190;-57
2023/06/26 10:29:54;;;;;;;0.10;0.10;;;16.40;65.00;;;;;;5071771;28;20197;-56
2023/06/26 10:32:27;;;;;;;0.10;0.10;;;16.50;65.10;;;;;;5071543;28;20781;-55
2023/06/26 10:35:02;;;;;;;0.10;0.10;;;16.50;65.10;;;;;;5069140;28;20202;-56
2023/06/26 10:37:50;;;;;;;0.10;0.10;;;16.40;65.00;;;;;;5034472;28;20206;-49
2023/06/26 10:40:28;;;;;;;0.10;0.10;;;16.50;65.00;;;;;;5031515;28;20682;-52
2023/06/26 10:43:11;;;;;;;0.00;0.00;;;16.50;65.00;;;;;;5031814;28;20246;-50
2023/06/26 10:45:52;;;;;;;0.10;0.10;;;16.50;65.00;;;;;;5031797;28;20211;-53
2023/06/26 10:48:23;;;;;;;0.08;0.08;;;16.40;64.80;;;;;;5031795;28;20267;-50
2023/06/26 10:50:58;;;;;;;0.10;0.10;;;16.50;65.00;;;;;;5015100;28;20227;-50
2023/06/26 10:53:35;;;;;;;0.10;0.10;;;16.40;64.90;;;;;;5047417;28;20209;-49
2023/06/26 10:56:07;;;;;;;0.00;0.00;;;16.40;64.90;;;;;;5071007;28;20552;-51
2023/06/26 10:58:47;;;;;;;0.10;0.10;;;16.40;64.80;;;;;;5071389;28;20199;-51
2023/06/26 11:01:27;;;;;;;0.10;0.10;;;16.40;64.90;;;;;;5070188;28;20222;-51
2023/06/26 11:04:07;;;;;;;0.00;0.00;;;16.40;64.80;;;;;;5071629;28;20694;-52
2023/06/26 11:06:40;;;;;;;0.10;0.10;;;16.40;64.80;;;;;;5071376;28;20201;-51
2023/06/26 11:09:13;;;;;;;0.10;0.10;;;16.40;64.70;;;;;;5070474;28;20199;-53
2023/06/26 11:12:08;;;;;;;0.10;0.10;;;16.40;64.70;;;;;;5071679;28;20694;-48
2023/06/26 11:14:39;;;;;;;0.05;0.05;;;16.40;64.70;;;;;;5071420;28;20225;-50
2023/06/26 11:17:14;;;;;;;0.10;0.10;;;16.40;64.70;;;;;;5071814;28;20198;-50
2023/06/26 11:19:47;;;;;;;0.10;0.10;;;16.40;64.70;;;;;;5053533;28;20194;-53
2023/06/26 11:22:22;;;;;;;0.03;0.03;;;16.40;64.70;;;;;;5071244;28;20229;-49
2023/06/26 11:25:02;;;;;;;0.10;0.10;;;16.40;64.70;;;;;;5071587;28;20670;-51
2023/06/26 11:27:40;;;;;;;0.10;0.10;;;16.40;64.70;;;;;;5054087;28;20201;-51
2023/06/26 11:30:12;;;;;;;0.10;0.10;;;16.40;64.70;;;;;;5071593;28;20195;-52
2023/06/26 11:32:44;;;;;;;0.10;0.10;;;16.40;64.70;;;;;;5071308;28;20191;-51
2023/06/26 11:35:16;;;;;;;0.00;0.00;;;16.40;64.70;;;;;;5071409;28;20209;-51
2023/06/26 11:37:48;;;;;;;0.10;0.10;;;16.40;64.70;;;;;;5071256;28;20240;-52
2023/06/26 11:40:26;;;;;;;0.13;0.13;;;16.40;64.70;;;;;;5070799;28;20454;-52
2023/06/26 11:42:58;;;;;;;0.10;0.10;;;16.40;64.70;;;;;;5070715;28;20198;-51
2023/06/26 11:45:30;;;;;;;0.10;0.10;;;16.40;64.60;;;;;;5070705;28;20203;-49
2023/06/26 11:48:02;;;;;;;0.10;0.10;;;16.40;64.60;;;;;;5070904;28;20199;-53
2023/06/26 11:50:33;;;;;;;0.10;0.10;;;16.40;64.60;;;;;;5071258;28;20218;-53
2023/06/26 11:53:07;;;;;;;0.10;0.10;;;16.40;64.50;;;;;;5071087;28;20199;-51
2023/06/26 11:55:45;;;;;;;0.10;0.10;;;16.40;64.60;;;;;;5052860;28;20647;-52
2023/06/26 11:58:16;;;;;;;0.10;0.10;;;16.40;64.60;;;;;;5051363;28;20214;-51
2023/06/26 12:00:49;;;;;;;0.10;0.10;;;16.40;64.50;;;;;;5051016;28;20224;-49
2023/06/26 12:03:20;;;;;;;0.10;0.10;;;16.40;64.50;;;;;;5050297;28;20592;-50
2023/06/26 12:05:52;;;;;;;0.10;0.10;;;16.40;64.50;;;;;;5050715;28;20192;-53
2023/06/26 12:08:25;;;;;;;0.10;0.10;;;16.40;64.50;;;;;;5050815;28;20558;-48
2023/06/26 12:10:56;;;;;;;0.10;0.10;;;16.40;64.50;;;;;;5050249;28;20208;-50
2023/06/26 12:13:28;;;;;;;0.10;0.10;;;16.40;64.50;;;;;;5049568;28;20207;-48
2023/06/26 12:15:59;;;;;;;0.00;0.00;;;16.40;64.50;;;;;;5050835;28;20602;-50
2023/06/26 12:18:38;;;;;;;0.13;0.13;;;16.40;64.50;;;;;;5050882;28;20195;-48
2023/06/26 12:21:12;;;;;;;0.10;0.10;;;16.40;64.60;;;;;;5051612;28;20705;-51
2023/06/26 12:23:45;;;;;;;0.10;0.10;;;16.40;64.50;;;;;;5063899;28;20710;-54
2023/06/26 12:26:22;;;;;;;0.10;0.10;;;16.40;64.40;;;;;;5074003;28;20195;-51
2023/06/26 12:28:53;;;;;;;0.10;0.10;;;16.40;64.40;;;;;;5068257;28;20558;-49
2023/06/26 12:31:25;;;;;;;0.20;0.20;;;16.40;64.40;;;;;;5036466;28;20605;-48
2023/06/26 12:33:56;;;;;;;0.20;0.20;;;16.40;64.40;;;;;;5054166;28;20201;-49
2023/06/26 12:36:27;;;;;;;0.10;0.10;;;16.40;64.40;;;;;;5054187;28;20739;-51
2023/06/26 12:39:03;;;;;;;0.10;0.10;;;16.40;64.40;;;;;;5054147;28;20199;-49
2023/06/26 12:41:34;;;;;;;0.10;0.10;;;16.40;64.40;;;;;;5053363;28;20264;-49
2023/06/26 12:44:05;;;;;;;0.10;0.10;;;16.40;64.40;;;;;;5053996;28;20246;-50
2023/06/26 12:46:38;;;;;;;0.20;0.20;;;16.40;64.40;;;;;;5053858;28;20207;-50
2023/06/26 12:49:09;;;;;;;0.10;0.10;;;16.40;64.40;;;;;;5053786;28;20659;-50
2023/06/26 12:51:40;;;;;;;0.10;0.10;;;16.40;64.40;;;;;;5053908;28;20713;-54
2023/06/26 12:54:13;;;;;;;0.20;0.20;;;16.40;64.40;;;;;;5067997;28;20213;-51
2023/06/26 12:56:44;;;;;;;0.10;0.10;;;16.40;64.40;;;;;;5073847;28;20199;-52
2023/06/26 12:59:14;;;;;;;0.10;0.10;;;16.40;64.30;;;;;;5073721;28;20199;-55
2023/06/26 13:01:45;;;;;;;0.10;0.10;;;16.30;64.30;;;;;;5073498;28;20214;-54
2023/06/26 13:04:16;;;;;;;0.10;0.10;;;16.40;64.30;;;;;;5073553;28;20305;-50
2023/06/26 13:06:47;;;;;;;0.10;0.10;;;16.40;64.30;;;;;;5073785;28;20191;-52
2023/06/26 13:09:20;;;;;;;0.10;0.10;;;16.40;64.30;;;;;;5073592;28;20199;-51
2023/06/26 13:11:51;;;;;;;0.10;0.10;;;16.40;64.30;;;;;;5073378;28;20301;-52
2023/06/26 13:14:22;;;;;;;0.10;0.10;;;16.40;64.30;;;;;;5073458;28;20677;-53